createdAt,value
2022-10-11T00:00:40.093Z,99715.00
2022-10-11T00:01:40.192Z,99715.00
2022-10-11T00:02:40.130Z,99713.00
2022-10-11T00:03:40.120Z,99714.00
2022-10-11T00:04:40.135Z,99712.00
2022-10-11T00:05:40.146Z,99716.00
2022-10-11T00:06:40.150Z,99723.00
2022-10-11T00:07:40.175Z,99720.00
2022-10-11T00:08:40.186Z,99724.00
2022-10-11T00:09:40.223Z,99721.00
2022-10-11T00:10:40.238Z,99726.00
2022-10-11T00:11:40.244Z,99726.00
2022-10-11T00:12:40.342Z,99730.00
2022-10-11T00:13:40.339Z,99735.00
2022-10-11T00:14:40.321Z,99733.00
2022-10-11T00:15:40.322Z,99737.00
2022-10-11T00:16:40.361Z,99734.00
2022-10-11T00:17:40.382Z,99735.00
2022-10-11T00:18:40.439Z,99733.00
2022-10-11T00:19:40.408Z,99733.00
2022-10-11T00:20:40.429Z,99737.00
2022-10-11T00:21:40.454Z,99734.00
2022-10-11T00:22:40.473Z,99737.00
2022-10-11T00:23:40.515Z,99733.00
2022-10-11T00:24:40.515Z,99739.00
2022-10-11T00:25:40.540Z,99737.00
2022-10-11T00:26:45.719Z,99737.00
2022-10-11T00:27:40.580Z,99737.00
2022-10-11T00:28:41.069Z,99734.00
2022-10-11T00:29:40.627Z,99742.00
2022-10-11T00:30:40.628Z,99740.00
2022-10-11T00:31:40.661Z,99739.00
2022-10-11T00:32:40.676Z,99739.00
2022-10-11T00:33:40.685Z,99742.00
2022-10-11T00:34:40.692Z,99738.00
2022-10-11T00:35:40.705Z,99740.00
2022-10-11T00:36:40.736Z,99741.00
2022-10-11T00:37:40.761Z,99743.00
2022-10-11T00:38:40.793Z,99746.00
2022-10-11T00:39:40.819Z,99745.00
2022-10-11T00:40:40.827Z,99744.00
2022-10-11T00:41:40.846Z,99744.00
2022-10-11T00:42:40.865Z,99745.00
2022-10-11T00:43:40.927Z,99745.00
2022-10-11T00:44:40.882Z,99744.00
2022-10-11T00:45:41.111Z,99745.00
2022-10-11T00:46:40.915Z,99744.00
2022-10-11T00:47:40.932Z,99743.00
2022-10-11T00:48:40.944Z,99744.00
2022-10-11T00:49:40.975Z,99744.00
2022-10-11T00:50:40.965Z,99741.00
2022-10-11T00:51:40.981Z,99745.00
2022-10-11T00:52:40.988Z,99744.00
2022-10-11T00:53:41.004Z,99746.00
2022-10-11T00:54:40.995Z,99746.00
2022-10-11T00:55:41.020Z,99747.00
2022-10-11T00:56:41.058Z,99751.00
2022-10-11T00:57:41.082Z,99752.00
2022-10-11T00:58:41.093Z,99751.00
2022-10-11T00:59:41.095Z,99752.00
2022-10-11T01:00:41.114Z,99758.00
2022-10-11T01:01:41.204Z,99754.00
2022-10-11T01:02:41.148Z,99759.00
2022-10-11T01:03:41.168Z,99754.00
2022-10-11T01:04:41.204Z,99753.00
2022-10-11T01:05:41.200Z,99754.00
2022-10-11T01:06:41.229Z,99754.00
2022-10-11T01:07:41.217Z,99752.00
2022-10-11T01:08:41.245Z,99749.00
2022-10-11T01:09:41.266Z,99750.00
2022-10-11T01:10:41.262Z,99754.00
2022-10-11T01:11:41.298Z,99753.00
2022-10-11T01:12:41.273Z,99760.00
2022-10-11T01:13:41.271Z,99762.00
2022-10-11T01:14:41.282Z,99761.00
2022-10-11T01:15:41.299Z,99759.00
2022-10-11T01:16:41.313Z,99759.00
2022-10-11T01:17:41.317Z,99760.00
2022-10-11T01:18:41.322Z,99762.00
2022-10-11T01:19:41.340Z,99766.00
2022-10-11T01:20:41.362Z,99759.00
2022-10-11T01:21:41.338Z,99766.00
2022-10-11T01:22:41.370Z,99764.00
2022-10-11T01:23:41.373Z,99769.00
2022-10-11T01:24:41.370Z,99768.00
2022-10-11T01:25:41.374Z,99770.00
2022-10-11T01:26:41.415Z,99771.00
2022-10-11T01:27:41.385Z,99771.00
2022-10-11T01:28:41.472Z,99772.00
2022-10-11T01:29:41.397Z,99769.00
2022-10-11T01:30:41.425Z,99771.00
2022-10-11T01:31:41.405Z,99767.00
2022-10-11T01:32:41.420Z,99772.00
2022-10-11T01:33:41.482Z,99771.00
2022-10-11T01:34:41.431Z,99771.00
2022-10-11T01:35:41.459Z,99768.00
2022-10-11T01:36:41.463Z,99764.00
2022-10-11T01:37:41.444Z,99767.00
2022-10-11T01:38:41.451Z,99776.00
2022-10-11T01:39:41.488Z,99774.00
2022-10-11T01:40:41.508Z,99772.00
2022-10-11T01:41:41.541Z,99775.00
2022-10-11T01:42:41.520Z,99776.00
2022-10-11T01:43:41.537Z,99779.00
2022-10-11T01:44:41.533Z,99774.00
2022-10-11T01:45:41.553Z,99776.00
2022-10-11T01:46:41.570Z,99778.00
2022-10-11T01:47:41.587Z,99778.00
2022-10-11T01:48:41.629Z,99780.00
2022-10-11T01:49:41.679Z,99779.00
2022-10-11T01:50:41.672Z,99778.00
2022-10-11T01:51:46.369Z,99781.00
2022-10-11T01:52:41.714Z,99778.00
2022-10-11T01:53:41.734Z,99785.00
2022-10-11T01:55:07.644Z,99785.00
2022-10-11T01:55:41.799Z,99787.00
2022-10-11T01:56:41.819Z,99789.00
2022-10-11T01:57:41.855Z,99790.00
2022-10-11T01:58:41.813Z,99790.00
2022-10-11T01:59:41.830Z,99791.00
2022-10-11T02:00:41.840Z,99790.00
2022-10-11T02:01:41.985Z,99791.00
2022-10-11T02:02:41.852Z,99792.00
2022-10-11T02:03:41.890Z,99789.00
2022-10-11T02:04:41.900Z,99790.00
2022-10-11T02:05:41.949Z,99792.00
2022-10-11T02:06:41.959Z,99791.00
2022-10-11T02:07:41.988Z,99792.00
2022-10-11T02:08:42.007Z,99794.00
2022-10-11T02:09:42.024Z,99798.00
2022-10-11T02:10:42.053Z,99801.00
2022-10-11T02:11:42.079Z,99800.00
2022-10-11T02:12:42.088Z,99801.00
2022-10-11T02:13:42.131Z,99800.00
2022-10-11T02:14:42.133Z,99802.00
2022-10-11T02:15:42.138Z,99804.00
2022-10-11T02:16:42.192Z,99803.00
2022-10-11T02:17:42.163Z,99807.00
2022-10-11T02:18:42.162Z,99813.00
2022-10-11T02:19:42.170Z,99810.00
2022-10-11T02:20:42.175Z,99812.00
2022-10-11T02:21:42.304Z,99811.00
2022-10-11T02:22:42.213Z,99812.00
2022-10-11T02:23:42.223Z,99811.00
2022-10-11T02:24:42.239Z,99816.00
2022-10-11T02:25:42.247Z,99820.00
2022-10-11T02:26:42.263Z,99816.00
2022-10-11T02:27:42.277Z,99820.00
2022-10-11T02:28:42.375Z,99821.00
2022-10-11T02:29:42.326Z,99818.00
2022-10-11T02:30:42.338Z,99820.00
2022-10-11T02:31:42.373Z,99825.00
2022-10-11T02:32:42.371Z,99819.00
2022-10-11T02:33:42.396Z,99826.00
2022-10-11T02:34:42.411Z,99824.00
2022-10-11T02:35:42.417Z,99824.00
2022-10-11T02:36:42.457Z,99818.00
2022-10-11T02:37:42.502Z,99826.00
2022-10-11T02:38:42.453Z,99824.00
2022-10-11T02:39:42.480Z,99825.00
2022-10-11T02:40:42.488Z,99826.00
2022-10-11T02:41:42.503Z,99823.00
2022-10-11T02:42:42.538Z,99819.00
2022-10-11T02:43:42.557Z,99824.00
2022-10-11T02:44:42.578Z,99821.00
2022-10-11T02:45:42.578Z,99826.00
2022-10-11T02:46:42.586Z,99822.00
2022-10-11T02:47:42.598Z,99823.00
2022-10-11T02:48:42.611Z,99824.00
2022-10-11T02:49:42.662Z,99822.00
2022-10-11T02:50:42.662Z,99829.00
2022-10-11T02:51:42.705Z,99829.00
2022-10-11T02:52:42.681Z,99826.00
2022-10-11T02:53:42.716Z,99833.00
2022-10-11T02:54:42.674Z,99833.00
2022-10-11T02:55:42.704Z,99833.00
2022-10-11T02:56:42.768Z,99837.00
2022-10-11T02:57:42.728Z,99833.00
2022-10-11T02:58:42.752Z,99826.00
2022-10-11T02:59:42.782Z,99834.00
2022-10-11T03:00:42.791Z,99835.00
2022-10-11T03:01:42.927Z,99834.00
2022-10-11T03:02:42.817Z,99835.00
2022-10-11T03:03:42.856Z,99835.00
2022-10-11T03:04:42.875Z,99836.00
2022-10-11T03:05:42.889Z,99839.00
2022-10-11T03:06:42.913Z,99838.00
2022-10-11T03:07:42.899Z,99838.00
2022-10-11T03:08:42.932Z,99837.00
2022-10-11T03:09:42.946Z,99837.00
2022-10-11T03:10:42.913Z,99836.00
2022-10-11T03:11:42.940Z,99834.00
2022-10-11T03:12:42.956Z,99833.00
2022-10-11T03:13:42.958Z,99831.00
2022-10-11T03:14:42.964Z,99829.00
2022-10-11T03:15:42.973Z,99832.00
2022-10-11T03:16:43.005Z,99831.00
2022-10-11T03:17:42.983Z,99836.00
2022-10-11T03:18:43.014Z,99835.00
2022-10-11T03:19:43.038Z,99830.00
2022-10-11T03:20:43.029Z,99836.00
2022-10-11T03:21:43.024Z,99837.00
2022-10-11T03:22:43.046Z,99842.00
2022-10-11T03:23:43.049Z,99841.00
2022-10-11T03:24:43.053Z,99842.00
2022-10-11T03:25:43.104Z,99839.00
2022-10-11T03:26:43.079Z,99841.00
2022-10-11T03:27:43.074Z,99843.00
2022-10-11T03:28:43.172Z,99842.00
2022-10-11T03:29:43.101Z,99844.00
2022-10-11T03:30:43.114Z,99845.00
2022-10-11T03:31:43.118Z,99844.00
2022-10-11T03:32:43.142Z,99845.00
2022-10-11T03:33:43.149Z,99849.00
2022-10-11T03:34:43.177Z,99848.00
2022-10-11T03:35:43.201Z,99848.00
2022-10-11T03:36:43.223Z,99852.00
2022-10-11T03:37:43.244Z,99850.00
2022-10-11T03:38:43.228Z,99848.00
2022-10-11T03:39:43.235Z,99850.00
2022-10-11T03:40:43.260Z,99853.00
2022-10-11T03:41:43.316Z,99851.00
2022-10-11T03:42:43.314Z,99850.00
2022-10-11T03:43:43.349Z,99858.00
2022-10-11T03:44:43.365Z,99857.00
2022-10-11T03:45:43.387Z,99857.00
2022-10-11T03:46:43.410Z,99861.00
2022-10-11T03:47:43.444Z,99859.00
2022-10-11T03:48:43.459Z,99862.00
2022-10-11T03:49:43.974Z,99865.00
2022-10-11T03:50:43.421Z,99867.00
2022-10-11T03:51:43.434Z,99872.00
2022-10-11T03:52:43.438Z,99869.00
2022-10-11T03:53:43.474Z,99870.00
2022-10-11T03:54:43.461Z,99869.00
2022-10-11T03:55:43.469Z,99870.00
2022-10-11T03:56:43.470Z,99872.00
2022-10-11T03:57:43.526Z,99874.00
2022-10-11T03:58:43.478Z,99873.00
2022-10-11T03:59:43.523Z,99873.00
2022-10-11T04:00:43.541Z,99874.00
2022-10-11T04:01:43.650Z,99874.00
2022-10-11T04:02:43.577Z,99875.00
2022-10-11T04:03:43.583Z,99879.00
2022-10-11T04:04:43.608Z,99875.00
2022-10-11T04:05:43.620Z,99876.00
2022-10-11T04:06:43.645Z,99875.00
2022-10-11T04:07:43.620Z,99876.00
2022-10-11T04:08:43.651Z,99880.00
2022-10-11T04:09:43.617Z,99880.00
2022-10-11T04:10:43.631Z,99880.00
2022-10-11T04:11:43.675Z,99881.00
2022-10-11T04:12:43.695Z,99886.00
2022-10-11T04:13:43.689Z,99881.00
2022-10-11T04:14:43.681Z,99886.00
2022-10-11T04:15:43.712Z,99884.00
2022-10-11T04:16:43.727Z,99886.00
2022-10-11T04:17:43.767Z,99888.00
2022-10-11T04:18:43.744Z,99890.00
2022-10-11T04:19:43.742Z,99886.00
2022-10-11T04:20:43.780Z,99887.00
2022-10-11T04:21:43.824Z,99883.00
2022-10-11T04:22:43.844Z,99890.00
2022-10-11T04:23:43.829Z,99894.00
2022-10-11T04:24:43.852Z,99888.00
2022-10-11T04:25:43.873Z,99891.00
2022-10-11T04:26:43.900Z,99891.00
2022-10-11T04:27:43.908Z,99892.00
2022-10-11T04:28:44.060Z,99896.00
2022-10-11T04:29:43.998Z,99896.00
2022-10-11T04:30:43.941Z,99901.00
2022-10-11T04:31:43.976Z,99903.00
2022-10-11T04:32:43.964Z,99900.00
2022-10-11T04:33:43.994Z,99905.00
2022-10-11T04:34:44.005Z,99894.00
2022-10-11T04:35:44.072Z,99898.00
2022-10-11T04:36:48.970Z,99905.00
2022-10-11T04:37:44.043Z,99900.00
2022-10-11T04:38:44.055Z,99904.00
2022-10-11T04:39:44.064Z,99903.00
2022-10-11T04:40:44.083Z,99905.00
2022-10-11T04:41:44.108Z,99906.00
2022-10-11T04:42:44.095Z,99905.00
2022-10-11T04:43:44.124Z,99902.00
2022-10-11T04:44:44.138Z,99907.00
2022-10-11T04:45:44.158Z,99908.00
2022-10-11T04:46:44.190Z,99907.00
2022-10-11T04:47:44.154Z,99910.00
2022-10-11T04:48:44.166Z,99912.00
2022-10-11T04:49:44.187Z,99914.00
2022-10-11T04:50:44.204Z,99913.00
2022-10-11T04:51:44.236Z,99918.00
2022-10-11T04:52:44.283Z,99921.00
2022-10-11T04:53:44.281Z,99922.00
2022-10-11T04:54:44.333Z,99918.00
2022-10-11T04:55:44.342Z,99924.00
2022-10-11T04:56:44.371Z,99924.00
2022-10-11T04:57:44.379Z,99929.00
2022-10-11T04:58:44.373Z,99927.00
2022-10-11T04:59:49.219Z,99934.00
2022-10-11T05:02:10.402Z,99934.00
2022-10-11T05:03:10.346Z,99934.00
2022-10-11T05:04:10.371Z,99937.00
2022-10-11T05:05:10.383Z,99937.00
2022-10-11T05:06:10.665Z,99937.00
2022-10-11T05:07:10.407Z,99932.00
2022-10-11T05:08:10.455Z,99937.00
2022-10-11T05:09:10.417Z,99935.00
2022-10-11T05:10:10.426Z,99935.00
2022-10-11T05:11:10.447Z,99940.00
2022-10-11T05:12:10.485Z,99936.00
2022-10-11T05:13:10.508Z,99935.00
2022-10-11T05:14:10.531Z,99934.00
2022-10-11T05:15:10.503Z,99939.00
2022-10-11T05:16:11.553Z,99939.00
2022-10-11T05:17:10.526Z,99940.00
2022-10-11T05:18:10.561Z,99943.00
2022-10-11T05:19:10.528Z,99944.00
2022-10-11T05:20:10.557Z,99946.00
2022-10-11T05:21:10.563Z,99946.00
2022-10-11T05:22:10.595Z,99947.00
2022-10-11T05:23:10.632Z,99948.00
2022-10-11T05:24:10.591Z,99947.00
2022-10-11T05:25:10.601Z,99949.00
2022-10-11T05:26:10.680Z,99944.00
2022-10-11T05:27:10.656Z,99953.00
2022-10-11T05:28:10.782Z,99949.00
2022-10-11T05:29:10.693Z,99954.00
2022-10-11T05:30:10.706Z,99958.00
2022-10-11T05:31:10.720Z,99945.00
2022-10-11T05:32:10.675Z,99950.00
2022-10-11T05:33:10.703Z,99954.00
2022-10-11T05:34:10.856Z,99957.00
2022-10-11T05:35:10.815Z,99951.00
2022-10-11T05:36:10.774Z,99956.00
2022-10-11T05:37:10.774Z,99960.00
2022-10-11T05:38:10.748Z,99960.00
2022-10-11T05:39:11.252Z,99964.00
2022-10-11T05:40:10.774Z,99963.00
2022-10-11T05:41:10.791Z,99962.00
2022-10-11T05:42:10.815Z,99965.00
2022-10-11T05:43:10.845Z,99961.00
2022-10-11T05:44:10.863Z,99967.00
2022-10-11T05:45:11.214Z,99966.00
2022-10-11T05:46:10.934Z,99971.00
2022-10-11T05:47:10.910Z,99968.00
2022-10-11T05:48:10.936Z,99974.00
2022-10-11T05:49:10.978Z,99977.00
2022-10-11T05:50:10.999Z,99980.00
2022-10-11T05:51:10.965Z,99979.00
2022-10-11T05:52:10.986Z,99978.00
2022-10-11T05:53:11.014Z,99986.00
2022-10-11T05:54:11.025Z,99989.00
2022-10-11T05:55:11.092Z,99990.00
2022-10-11T05:56:11.028Z,99987.00
2022-10-11T05:57:11.047Z,99991.00
2022-10-11T05:58:11.075Z,99991.00
2022-10-11T05:59:11.093Z,99993.00
2022-10-11T06:00:11.143Z,99993.00
2022-10-11T06:01:11.217Z,100000.00
2022-10-11T06:02:11.145Z,100001.00
2022-10-11T06:03:11.144Z,100009.00
2022-10-11T06:04:11.172Z,100010.00
2022-10-11T06:05:11.197Z,100008.00
2022-10-11T06:06:11.252Z,100011.00
2022-10-11T06:07:11.242Z,100016.00
2022-10-11T06:08:11.239Z,100013.00
2022-10-11T06:09:11.219Z,100018.00
2022-10-11T06:10:11.241Z,100014.00
2022-10-11T06:11:12.147Z,100018.00
2022-10-11T06:12:11.424Z,100022.00
2022-10-11T06:13:11.327Z,100018.00
2022-10-11T06:14:11.345Z,100027.00
2022-10-11T06:15:11.375Z,100024.00
2022-10-11T06:16:11.511Z,100024.00
2022-10-11T06:17:11.456Z,100026.00
2022-10-11T06:18:11.417Z,100024.00
2022-10-11T06:19:11.463Z,100026.00
2022-10-11T06:20:11.509Z,100029.00
2022-10-11T06:21:11.493Z,100030.00
2022-10-11T06:22:11.560Z,100029.00
2022-10-11T06:23:11.543Z,100032.00
2022-10-11T06:24:11.580Z,100031.00
2022-10-11T06:25:11.549Z,100034.00
2022-10-11T06:26:11.560Z,100036.00
2022-10-11T06:27:11.616Z,100036.00
2022-10-11T06:28:11.617Z,100037.00
2022-10-11T06:29:11.624Z,100039.00
2022-10-11T06:30:11.650Z,100040.00
2022-10-11T06:31:11.646Z,100038.00
2022-10-11T06:32:11.649Z,100046.00
2022-10-11T06:33:11.643Z,100045.00
2022-10-11T06:34:11.670Z,100050.00
2022-10-11T06:35:11.649Z,100046.00
2022-10-11T06:36:11.668Z,100043.00
2022-10-11T06:37:11.702Z,100047.00
2022-10-11T06:38:11.751Z,100049.00
2022-10-11T06:39:11.822Z,100050.00
2022-10-11T06:40:11.781Z,100051.00
2022-10-11T06:41:11.817Z,100050.00
2022-10-11T06:42:11.796Z,100050.00
2022-10-11T06:43:11.806Z,100053.00
2022-10-11T06:44:14.183Z,100051.00
2022-10-11T06:45:11.856Z,100054.00
2022-10-11T06:46:11.967Z,100057.00
2022-10-11T06:47:11.895Z,100058.00
2022-10-11T06:48:11.900Z,100063.00
2022-10-11T06:49:11.942Z,100059.00
2022-10-11T06:50:11.925Z,100061.00
2022-10-11T06:51:11.971Z,100066.00
2022-10-11T06:52:11.932Z,100066.00
2022-10-11T06:53:11.933Z,100064.00
2022-10-11T06:54:11.976Z,100071.00
2022-10-11T06:55:11.936Z,100070.00
2022-10-11T06:56:11.944Z,100070.00
2022-10-11T06:57:11.945Z,100061.00
2022-10-11T06:58:11.962Z,100069.00
2022-10-11T06:59:11.972Z,100066.00
2022-10-11T07:00:12.862Z,100069.00
2022-10-11T07:01:12.181Z,100071.00
2022-10-11T07:02:12.070Z,100069.00
2022-10-11T07:03:12.063Z,100073.00
2022-10-11T07:04:12.089Z,100074.00
2022-10-11T07:05:12.038Z,100077.00
2022-10-11T07:06:12.114Z,100078.00
2022-10-11T07:07:12.051Z,100080.00
2022-10-11T07:08:12.076Z,100081.00
2022-10-11T07:09:12.109Z,100079.00
2022-10-11T07:10:12.101Z,100083.00
2022-10-11T07:11:12.098Z,100085.00
2022-10-11T07:12:12.139Z,100085.00
2022-10-11T07:13:17.029Z,100088.00
2022-10-11T07:14:12.198Z,100087.00
2022-10-11T07:15:12.197Z,100090.00
2022-10-11T07:16:12.223Z,100093.00
2022-10-11T07:17:12.227Z,100089.00
2022-10-11T07:18:12.362Z,100090.00
2022-10-11T07:19:12.264Z,100091.00
2022-10-11T07:20:12.234Z,100100.00
2022-10-11T07:21:12.297Z,100091.00
2022-10-11T07:22:12.285Z,100098.00
2022-10-11T07:23:12.341Z,100097.00
2022-10-11T07:24:12.333Z,100096.00
2022-10-11T07:25:12.317Z,100100.00
2022-10-11T07:26:15.009Z,100099.00
2022-10-11T07:27:12.372Z,100105.00
2022-10-11T07:28:12.433Z,100099.00
2022-10-11T07:29:12.442Z,100107.00
2022-10-11T07:30:12.708Z,100106.00
2022-10-11T07:31:12.445Z,100109.00
2022-10-11T07:32:12.407Z,100109.00
2022-10-11T07:33:12.421Z,100114.00
2022-10-11T07:34:12.436Z,100116.00
2022-10-11T07:35:12.487Z,100117.00
2022-10-11T07:36:12.481Z,100120.00
2022-10-11T07:37:12.499Z,100116.00
2022-10-11T07:38:12.467Z,100120.00
2022-10-11T07:39:12.614Z,100120.00
2022-10-11T07:40:12.537Z,100116.00
2022-10-11T07:41:12.529Z,100119.00
2022-10-11T07:42:12.560Z,100121.00
2022-10-11T07:43:12.536Z,100115.00
2022-10-11T07:44:12.500Z,100114.00
2022-10-11T07:45:12.530Z,100118.00
2022-10-11T07:46:12.569Z,100120.00
2022-10-11T07:47:12.638Z,100121.00
2022-10-11T07:48:12.570Z,100118.00
2022-10-11T07:49:12.597Z,100117.00
2022-10-11T07:50:12.632Z,100118.00
2022-10-11T07:51:12.652Z,100120.00
2022-10-11T07:52:12.669Z,100119.00
2022-10-11T07:53:12.790Z,100120.00
2022-10-11T07:54:12.738Z,100119.00
2022-10-11T07:55:12.791Z,100121.00
2022-10-11T07:56:12.883Z,100123.00
2022-10-11T07:57:12.802Z,100127.00
2022-10-11T07:58:12.823Z,100128.00
2022-10-11T07:59:12.830Z,100128.00
2022-10-11T08:00:12.781Z,100125.00
2022-10-11T08:01:12.828Z,100125.00
2022-10-11T08:02:12.808Z,100127.00
2022-10-11T08:03:12.941Z,100124.00
2022-10-11T08:04:12.920Z,100123.00
2022-10-11T08:05:12.820Z,100125.00
2022-10-11T08:06:12.843Z,100122.00
2022-10-11T08:07:12.829Z,100123.00
2022-10-11T08:08:12.954Z,100111.00
2022-10-11T08:09:12.983Z,100117.00
2022-10-11T08:10:12.882Z,100118.00
2022-10-11T08:11:12.915Z,100116.00
2022-10-11T08:12:12.911Z,100119.00
2022-10-11T08:13:12.946Z,100119.00
2022-10-11T08:14:13.382Z,100124.00
2022-10-11T08:15:13.047Z,100126.00
2022-10-11T08:16:13.015Z,100128.00
2022-10-11T08:17:13.055Z,100128.00
2022-10-11T08:18:13.043Z,100129.00
2022-10-11T08:19:21.098Z,100128.00
2022-10-11T08:20:13.089Z,100128.00
2022-10-11T08:21:13.049Z,100126.00
2022-10-11T08:22:13.041Z,100131.00
2022-10-11T08:23:13.094Z,100130.00
2022-10-11T08:24:13.071Z,100133.00
2022-10-11T08:25:14.738Z,100134.00
2022-10-11T08:26:13.253Z,100131.00
2022-10-11T08:27:13.124Z,100135.00
2022-10-11T08:28:13.345Z,100133.00
2022-10-11T08:29:13.138Z,100133.00
2022-10-11T08:30:13.208Z,100134.00
2022-10-11T08:31:13.169Z,100122.00
2022-10-11T08:32:13.189Z,100134.00
2022-10-11T08:33:13.393Z,100133.00
2022-10-11T08:34:13.377Z,100137.00
2022-10-11T08:35:13.219Z,100137.00
2022-10-11T08:36:13.328Z,100136.00
2022-10-11T08:37:13.319Z,100143.00
2022-10-11T08:38:13.267Z,100138.00
2022-10-11T08:39:13.315Z,100144.00
2022-10-11T08:40:13.342Z,100146.00
2022-10-11T08:41:13.284Z,100144.00
2022-10-11T08:42:13.365Z,100138.00
2022-10-11T08:43:13.348Z,100139.00
2022-10-11T08:44:13.511Z,100138.00
2022-10-11T08:45:13.425Z,100138.00
2022-10-11T08:46:13.657Z,100140.00
2022-10-11T08:47:13.391Z,100139.00
2022-10-11T08:48:13.368Z,100134.00
2022-10-11T08:49:13.454Z,100134.00
2022-10-11T08:50:13.487Z,100138.00
2022-10-11T08:51:13.494Z,100136.00
2022-10-11T08:52:13.696Z,100136.00
2022-10-11T08:53:13.680Z,100133.00
2022-10-11T08:54:13.586Z,100132.00
2022-10-11T08:55:13.495Z,100132.00
2022-10-11T08:56:13.476Z,100130.00
2022-10-11T08:57:13.496Z,100132.00
2022-10-11T08:58:13.463Z,100134.00
2022-10-11T08:59:13.470Z,100131.00
2022-10-11T09:00:13.520Z,100138.00
2022-10-11T09:01:13.581Z,100136.00
2022-10-11T09:02:13.535Z,100132.00
2022-10-11T09:03:13.544Z,100136.00
2022-10-11T09:04:13.590Z,100134.00
2022-10-11T09:05:13.530Z,100133.00
2022-10-11T09:06:13.577Z,100133.00
2022-10-11T09:07:13.579Z,100134.00
2022-10-11T09:08:13.565Z,100140.00
2022-10-11T09:09:13.592Z,100137.00
2022-10-11T09:10:13.575Z,100140.00
2022-10-11T09:11:13.655Z,100141.00
2022-10-11T09:12:13.636Z,100141.00
2022-10-11T09:13:13.644Z,100144.00
2022-10-11T09:14:13.683Z,100141.00
2022-10-11T09:15:13.689Z,100144.00
2022-10-11T09:16:13.699Z,100140.00
2022-10-11T09:17:13.706Z,100142.00
2022-10-11T09:18:13.706Z,100140.00
2022-10-11T09:19:13.678Z,100137.00
2022-10-11T09:20:13.708Z,100144.00
2022-10-11T09:21:13.708Z,100146.00
2022-10-11T09:22:13.716Z,100144.00
2022-10-11T09:23:13.738Z,100141.00
2022-10-11T09:24:13.794Z,100140.00
2022-10-11T09:25:13.742Z,100140.00
2022-10-11T09:26:13.738Z,100133.00
2022-10-11T09:27:13.738Z,100134.00
2022-10-11T09:28:13.715Z,100134.00
2022-10-11T09:29:13.737Z,100140.00
2022-10-11T09:30:13.797Z,100140.00
2022-10-11T09:31:13.790Z,100137.00
2022-10-11T09:32:13.793Z,100139.00
2022-10-11T09:33:13.799Z,100139.00
2022-10-11T09:34:13.833Z,100139.00
2022-10-11T09:35:13.782Z,100141.00
2022-10-11T09:36:13.884Z,100140.00
2022-10-11T09:37:13.837Z,100139.00
2022-10-11T09:38:13.868Z,100138.00
2022-10-11T09:39:13.930Z,100140.00
2022-10-11T09:40:13.880Z,100137.00
2022-10-11T09:41:13.911Z,100138.00
2022-10-11T09:42:13.969Z,100137.00
2022-10-11T09:43:13.997Z,100136.00
2022-10-11T09:44:14.005Z,100136.00
2022-10-11T09:45:14.038Z,100139.00
2022-10-11T09:46:14.214Z,100133.00
2022-10-11T09:47:14.007Z,100131.00
2022-10-11T09:48:14.010Z,100133.00
2022-10-11T09:49:14.006Z,100131.00
2022-10-11T09:50:14.406Z,100130.00
2022-10-11T09:51:14.050Z,100132.00
2022-10-11T09:52:14.054Z,100133.00
2022-10-11T09:53:14.078Z,100135.00
2022-10-11T09:54:14.059Z,100134.00
2022-10-11T09:55:18.923Z,100129.00
2022-10-11T09:56:14.113Z,100134.00
2022-10-11T09:57:14.147Z,100135.00
2022-10-11T09:58:14.132Z,100132.00
2022-10-11T09:59:14.199Z,100131.00
2022-10-11T10:00:14.155Z,100136.00
2022-10-11T10:01:14.155Z,100134.00
2022-10-11T10:02:14.301Z,100137.00
2022-10-11T10:03:14.171Z,100133.00
2022-10-11T10:04:14.237Z,100126.00
2022-10-11T10:05:14.224Z,100130.00
2022-10-11T10:06:14.249Z,100134.00
2022-10-11T10:07:14.223Z,100134.00
2022-10-11T10:08:14.263Z,100131.00
2022-10-11T10:09:14.265Z,100131.00
2022-10-11T10:10:14.299Z,100125.00
2022-10-11T10:11:14.318Z,100128.00
2022-10-11T10:12:14.360Z,100131.00
2022-10-11T10:13:14.371Z,100130.00
2022-10-11T10:14:14.352Z,100130.00
2022-10-11T10:15:17.096Z,100126.00
2022-10-11T10:16:14.401Z,100127.00
2022-10-11T10:17:14.449Z,100122.00
2022-10-11T10:18:14.436Z,100128.00
2022-10-11T10:19:14.513Z,100127.00
2022-10-11T10:20:14.479Z,100127.00
2022-10-11T10:21:14.453Z,100127.00
2022-10-11T10:22:14.467Z,100128.00
2022-10-11T10:23:14.538Z,100129.00
2022-10-11T10:24:14.464Z,100130.00
2022-10-11T10:25:14.489Z,100132.00
2022-10-11T10:26:14.425Z,100131.00
2022-10-11T10:27:14.486Z,100130.00
2022-10-11T10:28:14.586Z,100130.00
2022-10-11T10:29:14.551Z,100133.00
2022-10-11T10:30:14.525Z,100134.00
2022-10-11T10:31:14.555Z,100133.00
2022-10-11T10:32:15.293Z,100127.00
2022-10-11T10:33:14.677Z,100133.00
2022-10-11T10:34:14.695Z,100135.00
2022-10-11T10:35:15.598Z,100133.00
2022-10-11T10:36:14.680Z,100130.00
2022-10-11T10:37:14.673Z,100130.00
2022-10-11T10:38:14.688Z,100131.00
2022-10-11T10:39:14.676Z,100134.00
2022-10-11T10:40:14.683Z,100133.00
2022-10-11T10:41:14.736Z,100136.00
2022-10-11T10:42:14.831Z,100136.00
2022-10-11T10:43:14.749Z,100133.00
2022-10-11T10:44:14.732Z,100136.00
2022-10-11T10:45:20.076Z,100133.00
2022-10-11T10:46:14.771Z,100133.00
2022-10-11T10:47:14.758Z,100133.00
2022-10-11T10:48:14.756Z,100131.00
2022-10-11T10:50:14.852Z,100131.00
2022-10-11T10:51:14.831Z,100130.00
2022-10-11T10:52:14.889Z,100132.00
2022-10-11T10:53:14.829Z,100134.00
2022-10-11T10:54:14.863Z,100133.00
2022-10-11T10:55:14.941Z,100134.00
2022-10-11T10:56:14.887Z,100132.00
2022-10-11T10:57:14.914Z,100128.00
2022-10-11T10:58:18.582Z,100124.00
2022-10-11T10:59:14.914Z,100129.00
2022-10-11T11:00:15.065Z,100124.00
2022-10-11T11:01:15.113Z,100124.00
2022-10-11T11:02:39.264Z,100123.00
2022-10-11T11:03:15.082Z,100124.00
2022-10-11T11:04:15.040Z,100120.00
2022-10-11T11:05:15.015Z,100125.00
2022-10-11T11:06:15.126Z,100122.00
2022-10-11T11:07:15.085Z,100123.00
2022-10-11T11:08:15.053Z,100120.00
2022-10-11T11:09:15.103Z,100122.00
2022-10-11T11:10:15.158Z,100124.00
2022-10-11T11:11:15.083Z,100124.00
2022-10-11T11:12:15.091Z,100128.00
2022-10-11T11:13:15.077Z,100125.00
2022-10-11T11:14:15.120Z,100129.00
2022-10-11T11:15:15.132Z,100127.00
2022-10-11T11:16:15.150Z,100126.00
2022-10-11T11:17:15.203Z,100129.00
2022-10-11T11:18:15.209Z,100130.00
2022-10-11T11:19:15.184Z,100127.00
2022-10-11T11:20:15.333Z,100124.00
2022-10-11T11:21:15.277Z,100120.00
2022-10-11T11:22:15.221Z,100124.00
2022-10-11T11:23:15.245Z,100123.00
2022-10-11T11:24:15.252Z,100119.00
2022-10-11T11:25:15.269Z,100121.00
2022-10-11T11:26:15.341Z,100119.00
2022-10-11T11:27:15.318Z,100122.00
2022-10-11T11:28:15.414Z,100118.00
2022-10-11T11:29:15.323Z,100120.00
2022-10-11T11:30:15.332Z,100117.00
2022-10-11T11:31:15.358Z,100115.00
2022-10-11T11:32:15.396Z,100109.00
2022-10-11T11:33:15.494Z,100112.00
2022-10-11T11:34:15.461Z,100113.00
2022-10-11T11:35:15.469Z,100112.00
2022-10-11T11:36:15.481Z,100110.00
2022-10-11T11:37:15.524Z,100109.00